Flight Track Log - Related Links

Times and Time Zones

All times are in EDT time to prevent confusion due to time zone crossing. See the JUS196 flight status page for this flight to view local times or setup timezone preferences in your user account.

Time Position Orientation Groundspeed Altitude Reporting Facility
EDT Latitude Longitude Course Direction KTS MPH feet Rate Location/Type
Fri 04:41:51 AM 43.1667 -79.9500 257° West 170 196 3,100  Level Toronto Center
Fri 04:42:51 AM 43.1667 -80.0500 270° West 220 253 4,700 2,800 Climbing Toronto Center
Fri 04:43:51 AM 43.1500 -80.1333 255° West 260 299 8,700 3,750 Climbing Toronto Center
Fri 04:44:51 AM 43.1333 -80.2667 260° West 300 345 12,200 2,650 Climbing Toronto Center
Fri 04:45:00 AM 43.1650 -79.9869 258° West  Level FlightAware Approximate
Fri 04:45:51 AM 43.1167 -80.3833 259° West 330 380 14,000  Level Toronto Center
Fri 04:46:00 AM 43.1432 -80.1514 262° West  Level FlightAware Approximate
Fri 04:46:51 AM 43.1000 -80.5167 260° West 350 403 14,100  Level Toronto Center
Fri 04:47:00 AM 43.1223 -80.3162 257° West  Level FlightAware Approximate
Fri 04:47:51 AM 43.1000 -80.6333 270° West 350 403 14,100  Level Toronto Center
Fri 04:48:51 AM 43.0667 -80.7667 251° West 360 414 14,100  Level Toronto Center
Fri 04:49:51 AM 43.0333 -80.9167 253° West 360 414 14,100  Level Toronto Center
Fri 04:50:51 AM 43.0333 -81.0500 270° West 360 414 14,100 -50 Level Toronto Center
Fri 04:51:51 AM 43.0000 -81.1833 251° West 360 414 14,000 -50 Descending Toronto Center
Fri 04:52:51 AM 42.9833 -81.3167 260° West 370 426 14,000  Level Toronto Center
Fri 04:53:51 AM 42.9333 -81.4333 240° Southwest 370 426 14,000  Level Toronto Center
Fri 04:54:51 AM 42.8833 -81.5667 243° Southwest 370 426 14,000  Level Toronto Center
Fri 04:55:47 AM 42.8569 -81.7019 255° West 365 420 14,000  Level Cleveland Center
Fri 04:56:47 AM 42.8161 -81.8172 244° Southwest 358 412 14,000  Level Cleveland Center
Fri 04:57:47 AM 42.7794 -81.9381 248° West 358 412 14,000  Level Cleveland Center
Fri 04:58:47 AM 42.7406 -82.0561 246° West 353 406 14,000  Level Cleveland Center
Fri 04:59:47 AM 42.7014 -82.1736 246° West 353 406 14,000 50 Level Cleveland Center
Fri 05:00:47 AM 42.6642 -82.2914 247° West 353 406 14,100 50 Climbing Cleveland Center
Fri 05:01:47 AM 42.6228 -82.4058 244° Southwest 353 406 14,100  Level Cleveland Center
Fri 05:02:47 AM 42.5856 -82.5261 247° West 353 406 14,100 -1,088 Level Cleveland Center
Fri 05:04:00 AM 42.5682 -82.6796 242° Southwest  Level FlightAware Approximate
Fri 05:09:47 AM 42.3489 -83.2156 246° West 281 323 5,400  Level Cleveland Center
Fri 05:11:00 AM 42.2333 -83.5167 246° West  Level FlightAware Approximate
Fri 05:11:08 AM 42.3106 -83.3319 246° West 231 266 3,800  Level Cleveland Center
Fri 05:12:00 AM 42.2393 -83.5310 246° West  Level Estimated
Fri 05:12:09 AM 42.2861 -83.4011 244° Southwest 197 227 3,100  Level Cleveland Center
Fri 05:13:00 AM 42.2393 -83.5310 246° West  Level Estimated
Fri 05:13:09 AM 42.2800 -83.4711 263° West 164 189 3,000  Level Cleveland Center
Fri 05:14:00 AM 42.2393 -83.5310 246° West  Level Estimated
Fri 05:14:10 AM 42.2722 -83.5381 261° West 199 229 2,300  Level Cleveland Center
Fri 05:15:11 AM 42.2539 -83.5989 248° West 170 196 2,300  Level Cleveland Center
Fri 05:16:11 AM 42.2181 -83.6083 191° South 161 185 2,300  Level Cleveland Center
Fri 05:18:00 AM 42.2393 -83.5310 246° West  Level Estimated

Login

Don't have an account? Register now (free) for customized features, flight alerts, and more!